Impacts METAR Board INFO
IDs:

KPHX - Phoenix/Sky Harbor, AZ, US

Updated at: 1438 UTC 22 Nov 2017
Potential Impact None Slight Moderate High
Time22/02Z 22/03Z 22/04Z 22/05Z 22/06Z 22/07Z 22/08Z 22/09Z 22/10Z 22/11Z 22/12Z 22/13Z 22/14Z
VIS10 10 10 10 10 10 10 10 10 10 10 10 10
CIG250 250 250 -- -- -- -- -- -- -- -- -- --
CoverBKNBKNBKNSCTFEWFEWFEWFEWFEWFEWFEWFEWSCT
FltCatVFRVFRVFRVFRVFRVFRVFRVFRVFRVFRVFRVFRVFR
WX--------------------------
WDir260330009001001008011010010090
WSpd3 4 0 0 5 0 5 7 6 5 5 6 3
WGst-- -- -- -- -- -- -- -- -- -- -- -- --
Raw hourly METARs
KPHX 220151Z 26003KT 10SM BKN250 BKN290 22/M02 A3005 RMK AO2 SLP166 T02221017
KPHX 220251Z 33004KT 10SM BKN250 23/M01 A3006 RMK AO2 SLP171 T02281011 53010
KPHX 220351Z 00000KT 10SM BKN250 21/M01 A3006 RMK AO2 SLP169 T02061011
KPHX 220451Z 00000KT 10SM SCT250 20/M01 A3007 RMK AO2 SLP170 T02001011
KPHX 220551Z 09005KT 10SM FEW250 18/01 A3006 RMK AO2 SLP170 T01780006 10250 20178 53000
KPHX 220651Z 00000KT 10SM FEW250 18/01 A3007 RMK AO2 SLP172 T01780006 402610128
KPHX 220751Z 10005KT 10SM FEW250 16/01 A3007 RMK AO2 SLP173 T01610011
KPHX 220851Z 10007KT 10SM FEW250 16/02 A3007 RMK AO2 SLP171 T01560017 50001
KPHX 220951Z 08006KT 10SM FEW250 16/01 A3008 RMK AO2 SLP173 T01560011
KPHX 221051Z 11005KT 10SM FEW250 14/01 A3008 RMK AO2 SLP177 T01440011
KPHX 221151Z 10005KT 10SM FEW250 14/00 A3009 RMK AO2 SLP178 T01440000 10183 20139 51007
KPHX 221251Z 10006KT 10SM FEW250 14/02 A3009 RMK AO2 SLP181 T01390017
KPHX 221351Z 09003KT 10SM SCT250 14/02 A3011 RMK AO2 SLP186 T01390022